Time;durP1;ratioP1;P1;durP2;ratioP2;P2;SDS_P1;SDS_P2;PMS_P1;PMS_P2;Temp;Humidity;BMP_temperature;BMP_pressure;BME280_temperature;BME280_humidity;BME280_pressure;Samples;Min_cycle;Max_cycle;Signal;HPM_P1;HPM_P2
2022/03/19 00:02:28;;;;;;;0.60;0.60;;;19.10;77.00;;;;;;5057167;27;95801;-66
2022/03/19 00:04:58;;;;;;;1.13;0.55;;;19.10;77.00;;;;;;5062767;27;95703;-67
2022/03/19 00:07:32;;;;;;;1.30;0.60;;;19.10;77.00;;;;;;5064867;27;95789;-66
2022/03/19 00:10:04;;;;;;;1.83;0.50;;;19.10;76.80;;;;;;5065607;27;95894;-65
2022/03/19 00:12:40;;;;;;;1.08;0.60;;;19.10;77.00;;;;;;5050679;27;95988;-66
2022/03/19 00:15:11;;;;;;;1.38;0.47;;;19.20;76.70;;;;;;5039291;27;95413;-66
2022/03/19 00:17:43;;;;;;;2.67;0.50;;;19.20;76.80;;;;;;5065759;27;95452;-67
2022/03/19 00:20:14;;;;;;;2.05;0.82;;;19.20;76.90;;;;;;5058434;27;96679;-66
2022/03/19 00:22:45;;;;;;;1.83;0.50;;;19.30;76.60;;;;;;5071128;27;95591;-66
2022/03/19 00:25:17;;;;;;;1.48;0.57;;;19.30;76.70;;;;;;5064513;27;95933;-66
2022/03/19 00:27:47;;;;;;;1.52;0.40;;;19.30;76.70;;;;;;5064029;27;95656;-66
2022/03/19 00:30:18;;;;;;;0.85;0.82;;;19.30;77.10;;;;;;5038259;27;98400;-66
2022/03/19 00:32:49;;;;;;;0.50;0.47;;;19.30;74.80;;;;;;5049816;27;101912;-66
2022/03/19 00:35:20;;;;;;;1.17;0.55;;;19.30;78.00;;;;;;5057830;27;95760;-66
2022/03/19 00:37:53;;;;;;;2.17;0.70;;;19.40;77.00;;;;;;5050495;27;95958;-66
2022/03/19 00:40:24;;;;;;;3.33;0.80;;;19.40;77.00;;;;;;5044162;27;95909;-67
2022/03/19 00:42:54;;;;;;;1.13;0.83;;;19.40;76.90;;;;;;5048096;27;95937;-66
2022/03/19 00:45:24;;;;;;;1.75;0.95;;;19.40;77.20;;;;;;5042916;27;95751;-67
2022/03/19 00:47:54;;;;;;;1.00;0.80;;;19.50;78.20;;;;;;5047266;27;95216;-69
2022/03/19 00:50:25;;;;;;;2.83;0.60;;;19.60;77.40;;;;;;5033007;27;96497;-68
2022/03/19 00:52:56;;;;;;;3.22;1.05;;;19.60;73.20;;;;;;5042839;27;95968;-71
2022/03/19 00:55:26;;;;;;;2.73;0.93;;;19.60;77.50;;;;;;5049453;27;95907;-64
2022/03/19 00:57:57;;;;;;;2.53;1.20;;;19.60;77.60;;;;;;5048368;27;95296;-71
2022/03/19 01:00:28;;;;;;;3.53;0.95;;;19.60;78.60;;;;;;5039363;27;97474;-63
2022/03/19 01:02:59;;;;;;;4.00;1.20;;;19.60;77.60;;;;;;5029071;27;97964;-64
2022/03/19 01:05:30;;;;;;;2.28;0.90;;;19.60;77.90;;;;;;5040312;27;96270;-64
2022/03/19 01:08:00;;;;;;;;;;;19.60;77.90;;;;;;5050337;27;95946;-63
2022/03/19 01:10:34;;;;;;;3.20;1.30;;;19.70;77.90;;;;;;5041105;27;95830;-64
2022/03/19 01:13:10;;;;;;;6.68;1.15;;;19.70;77.80;;;;;;5037429;27;97545;-64
2022/03/19 01:15:45;;;;;;;3.25;1.05;;;19.70;77.80;;;;;;5025286;27;96041;-65
2022/03/19 01:18:16;;;;;;;2.97;0.63;;;19.80;77.90;;;;;;5037006;27;96703;-66
2022/03/19 01:20:46;;;;;;;1.35;0.90;;;19.80;78.00;;;;;;5038865;27;97190;-65
2022/03/19 01:23:17;;;;;;;1.85;0.73;;;19.90;78.20;;;;;;5033536;27;96906;-65
2022/03/19 01:25:49;;;;;;;3.15;1.20;;;19.90;78.10;;;;;;5033294;27;95722;-66
2022/03/19 01:28:20;;;;;;;3.30;1.00;;;20.00;78.20;;;;;;5037845;27;95704;-65
2022/03/19 01:30:51;;;;;;;1.48;0.98;;;20.00;78.10;;;;;;5037935;27;96145;-65
2022/03/19 01:33:22;;;;;;;3.47;1.08;;;20.10;78.20;;;;;;5061955;27;96180;-65
2022/03/19 01:35:53;;;;;;;1.27;0.90;;;20.10;78.30;;;;;;5047508;27;95715;-65
2022/03/19 01:38:23;;;;;;;2.95;1.10;;;20.20;78.30;;;;;;5057619;27;95760;-65
2022/03/19 01:40:54;;;;;;;;;;;20.30;79.10;;;;;;5061861;27;95895;-66
2022/03/19 01:43:24;;;;;;;3.25;1.15;;;20.30;78.40;;;;;;5065056;27;95669;-64
2022/03/19 01:45:54;;;;;;;5.63;1.30;;;20.40;76.40;;;;;;5054957;27;95422;-64
2022/03/19 01:48:25;;;;;;;2.47;0.80;;;20.50;78.30;;;;;;5063466;27;95570;-64
2022/03/19 01:50:56;;;;;;;2.33;1.00;;;20.50;78.20;;;;;;5063672;27;96097;-63
2022/03/19 01:53:26;;;;;;;;;;;20.60;78.10;;;;;;5049562;27;97881;-64
2022/03/19 01:55:57;;;;;;;3.53;0.77;;;20.70;78.10;;;;;;5059372;27;96033;-64
2022/03/19 01:58:29;;;;;;;1.98;1.05;;;20.70;78.10;;;;;;5058800;27;96173;-64
2022/03/19 02:01:00;;;;;;;;;;;20.80;77.90;;;;;;5047174;27;97629;-63
2022/03/19 02:03:30;;;;;;;6.28;1.48;;;20.90;77.90;;;;;;5040875;27;98260;-64
2022/03/19 02:06:01;;;;;;;1.52;0.90;;;20.90;77.70;;;;;;5062838;27;95345;-64
2022/03/19 02:08:33;;;;;;;1.45;0.98;;;20.90;77.70;;;;;;5064639;27;95792;-64
2022/03/19 02:11:06;;;;;;;4.35;1.20;;;21.00;77.70;;;;;;5065948;27;96499;-64
2022/03/19 02:13:36;;;;;;;1.45;1.10;;;21.10;77.70;;;;;;5032921;27;95923;-63
2022/03/19 02:16:09;;;;;;;5.93;1.02;;;21.20;76.50;;;;;;5041569;27;95916;-63
2022/03/19 02:18:41;;;;;;;1.55;1.10;;;21.20;77.30;;;;;;5064698;27;95755;-64
2022/03/19 02:21:12;;;;;;;0.90;0.90;;;21.30;77.10;;;;;;5065159;27;95848;-64
2022/03/19 02:26:33;;;;;;;1.27;1.17;;;21.40;76.90;;;;;;5057343;27;96466;-64
2022/03/19 02:29:04;;;;;;;2.78;1.08;;;21.50;76.80;;;;;;5060473;27;95660;-63
2022/03/19 02:31:35;;;;;;;;;;;21.50;76.70;;;;;;5040855;27;95916;-64
2022/03/19 02:34:09;;;;;;;1.58;1.30;;;21.60;76.60;;;;;;5043620;27;95494;-64
2022/03/19 02:36:40;;;;;;;2.08;1.13;;;21.60;76.70;;;;;;5049824;27;96534;-64
2022/03/19 02:39:32;;;;;;;1.23;1.13;;;21.70;76.50;;;;;;5064701;27;96219;-65
2022/03/19 02:42:06;;;;;;;4.50;1.30;;;21.80;72.30;;;;;;5058393;27;96470;-63
2022/03/19 02:44:36;;;;;;;2.40;1.20;;;21.90;76.20;;;;;;5063625;27;95800;-64
2022/03/19 02:47:08;;;;;;;1.85;1.52;;;21.90;75.70;;;;;;5026348;27;96040;-65
2022/03/19 02:49:39;;;;;;;2.45;1.52;;;21.90;75.30;;;;;;5048101;27;96247;-64
2022/03/19 02:52:10;;;;;;;;;;;21.90;75.20;;;;;;5037832;27;97315;-63
2022/03/19 02:54:40;;;;;;;1.63;1.50;;;21.90;74.90;;;;;;5043141;27;95843;-64
2022/03/19 02:57:10;;;;;;;1.60;1.40;;;22.00;75.00;;;;;;5042574;27;95996;-65
2022/03/19 02:59:41;;;;;;;1.67;1.33;;;22.00;75.10;;;;;;5049239;27;96167;-63
2022/03/19 03:02:11;;;;;;;1.48;1.38;;;22.10;75.10;;;;;;5044735;27;95702;-63
2022/03/19 03:04:42;;;;;;;1.50;1.23;;;22.10;74.90;;;;;;5068524;27;96167;-64
2022/03/19 03:07:13;;;;;;;1.65;1.20;;;22.10;74.90;;;;;;5065011;27;95839;-64
2022/03/19 03:09:45;;;;;;;3.30;1.73;;;22.10;74.60;;;;;;5069278;27;95207;-65
2022/03/19 03:12:16;;;;;;;1.48;1.30;;;22.20;74.90;;;;;;5063737;27;95874;-66
2022/03/19 03:14:47;;;;;;;1.63;1.52;;;22.30;74.50;;;;;;5051830;27;95330;-66
2022/03/19 03:17:18;;;;;;;2.88;1.65;;;22.40;74.20;;;;;;5031182;27;95367;-64
2022/03/19 03:19:51;;;;;;;2.38;1.63;;;22.50;73.70;;;;;;5075461;27;95680;-66
2022/03/19 03:22:22;;;;;;;3.00;2.53;;;22.50;73.60;;;;;;5049647;27;96118;-63
2022/03/19 03:24:53;;;;;;;2.22;1.55;;;22.60;73.50;;;;;;5048558;27;96023;-63
2022/03/19 03:27:24;;;;;;;2.00;1.55;;;22.60;72.10;;;;;;5056567;27;95361;-63
2022/03/19 03:29:56;;;;;;;3.67;1.70;;;22.60;73.60;;;;;;5065136;27;95775;-63
2022/03/19 03:32:26;;;;;;;1.60;1.50;;;22.60;73.60;;;;;;5055073;27;96723;-63
2022/03/19 03:34:58;;;;;;;3.58;1.70;;;22.60;73.70;;;;;;5063327;27;95801;-61
2022/03/19 03:37:29;;;;;;;2.28;2.00;;;22.60;74.20;;;;;;5064999;27;95602;-63
2022/03/19 03:40:01;;;;;;;2.35;1.83;;;22.60;70.20;;;;;;5074287;27;96128;-62
2022/03/19 03:42:31;;;;;;;1.83;1.08;;;22.50;72.30;;;;;;5057820;27;96016;-62
2022/03/19 03:45:06;;;;;;;4.68;1.88;;;22.50;72.80;;;;;;5060912;27;95705;-60
2022/03/19 03:47:36;;;;;;;2.78;1.40;;;22.50;72.50;;;;;;5065037;27;95911;-65
2022/03/19 03:50:08;;;;;;;5.67;1.60;;;22.50;72.90;;;;;;5070914;27;95774;-60
2022/03/19 03:52:40;;;;;;;6.70;2.75;;;22.50;72.60;;;;;;5054196;27;96614;-70
2022/03/19 03:55:10;;;;;;;5.63;1.85;;;22.60;72.40;;;;;;5070229;27;95642;-58
2022/03/19 03:57:43;;;;;;;1.88;1.42;;;22.60;70.30;;;;;;5069741;27;95873;-59
2022/03/19 04:00:15;;;;;;;3.78;1.67;;;22.60;69.60;;;;;;5068351;27;95784;-59
2022/03/19 04:02:44;;;;;;;;;;;22.50;68.80;;;;;;5040962;27;98845;-61
2022/03/19 04:05:14;;;;;;;1.90;1.42;;;22.50;68.70;;;;;;5066992;27;95539;-61
2022/03/19 04:07:46;;;;;;;4.80;2.22;;;22.50;69.50;;;;;;5058138;27;95795;-56
2022/03/19 04:10:18;;;;;;;3.05;2.03;;;22.50;68.10;;;;;;5065414;27;95754;-60
2022/03/19 04:12:50;;;;;;;3.30;1.80;;;22.50;67.60;;;;;;5062723;27;95935;-61
2022/03/19 04:15:21;;;;;;;2.30;1.77;;;22.50;67.50;;;;;;5028002;27;97217;-60
2022/03/19 04:17:53;;;;;;;1.75;1.50;;;22.50;67.30;;;;;;5066143;27;95636;-60
2022/03/19 04:20:25;;;;;;;2.28;1.70;;;22.50;66.90;;;;;;5066549;27;95694;-60
2022/03/19 04:22:58;;;;;;;1.67;1.58;;;22.50;66.50;;;;;;5064766;27;95913;-60
2022/03/19 04:25:30;;;;;;;1.70;1.60;;;22.50;66.40;;;;;;5067757;27;95907;-60
2022/03/19 04:28:01;;;;;;;1.98;1.70;;;22.50;66.10;;;;;;5068720;27;95184;-59
2022/03/19 04:30:32;;;;;;;2.03;1.85;;;22.50;65.40;;;;;;5060709;27;95582;-61
2022/03/19 04:33:04;;;;;;;1.40;1.30;;;22.50;65.40;;;;;;5071145;27;96508;-57
2022/03/19 04:38:24;;;;;;;2.55;1.65;;;22.50;65.00;;;;;;5070217;27;95755;-60
2022/03/19 04:40:56;;;;;;;3.30;1.77;;;22.50;64.70;;;;;;5068521;27;95632;-59
2022/03/19 04:43:27;;;;;;;3.00;1.48;;;22.50;64.70;;;;;;5065652;27;96236;-59
2022/03/19 04:45:57;;;;;;;5.40;1.60;;;22.50;64.70;;;;;;5055953;27;95542;-59
2022/03/19 04:48:27;;;;;;;2.90;1.77;;;22.50;64.50;;;;;;5069706;27;95608;-59
2022/03/19 04:50:58;;;;;;;2.07;1.87;;;22.50;64.10;;;;;;5069125;27;95203;-60
2022/03/19 04:53:30;;;;;;;1.40;1.30;;;22.50;63.80;;;;;;5069128;27;95875;-61
2022/03/19 04:56:00;;;;;;;2.50;1.75;;;22.50;63.60;;;;;;5065292;27;96090;-60
2022/03/19 04:58:30;;;;;;;;;;;22.50;63.40;;;;;;5071440;27;95241;-60
2022/03/19 05:01:01;;;;;;;2.55;1.42;;;22.50;63.20;;;;;;5060499;27;95560;-60
2022/03/19 05:03:31;;;;;;;2.08;1.88;;;22.50;63.10;;;;;;5066391;27;95697;-61
2022/03/19 05:06:02;;;;;;;3.30;1.73;;;22.50;63.10;;;;;;5066227;27;95955;-61
2022/03/19 05:08:35;;;;;;;3.63;1.70;;;22.50;63.00;;;;;;5068926;27;95700;-59
2022/03/19 05:11:17;;;;;;;2.90;1.30;;;22.60;64.10;;;;;;5069310;27;95573;-61
2022/03/19 05:13:48;;;;;;;1.63;1.30;;;22.60;64.10;;;;;;5061808;27;95979;-60
2022/03/19 05:16:20;;;;;;;4.13;1.85;;;22.70;64.20;;;;;;5044646;27;96105;-60
2022/03/19 05:18:51;;;;;;;3.45;1.60;;;22.70;64.10;;;;;;5053131;27;95386;-59
2022/03/19 05:21:22;;;;;;;2.60;1.65;;;22.80;64.70;;;;;;5053247;27;96313;-63
2022/03/19 05:23:53;;;;;;;3.67;1.70;;;22.90;65.10;;;;;;5057716;27;97928;-61
2022/03/19 05:26:24;;;;;;;1.70;1.30;;;22.90;65.10;;;;;;5064202;27;95371;-62
2022/03/19 05:28:55;;;;;;;1.60;1.13;;;23.00;65.20;;;;;;5063922;27;95365;-61
2022/03/19 05:31:35;;;;;;;1.52;1.42;;;23.10;65.50;;;;;;5056291;27;95885;-62
2022/03/19 05:36:55;;;;;;;2.55;1.85;;;23.20;65.90;;;;;;5049064;27;95588;-61
2022/03/19 05:39:28;;;;;;;1.65;1.35;;;23.20;66.10;;;;;;5049655;27;95879;-59
2022/03/19 05:42:00;;;;;;;2.63;1.60;;;23.30;66.30;;;;;;5048553;27;95271;-60
2022/03/19 05:44:30;;;;;;;2.10;1.73;;;23.30;66.30;;;;;;5042379;27;95794;-61
2022/03/19 05:47:00;;;;;;;2.00;1.30;;;23.40;66.60;;;;;;5050254;27;95435;-61
2022/03/19 05:49:31;;;;;;;2.90;1.30;;;23.40;66.60;;;;;;5063956;27;95664;-62
2022/03/19 05:52:01;;;;;;;;;;;23.40;66.80;;;;;;5066990;27;95874;-64
2022/03/19 05:54:31;;;;;;;1.38;1.23;;;23.40;67.10;;;;;;5067129;27;95800;-62
2022/03/19 05:57:01;;;;;;;2.70;1.70;;;23.50;67.30;;;;;;5058946;27;96147;-62
2022/03/19 05:59:32;;;;;;;2.58;1.40;;;23.50;67.50;;;;;;5056974;27;95871;-64
2022/03/19 06:02:06;;;;;;;2.17;1.50;;;23.50;67.90;;;;;;5052638;27;95858;-64
2022/03/19 06:04:38;;;;;;;3.40;1.60;;;23.50;68.20;;;;;;5064436;27;95910;-60
2022/03/19 06:07:10;;;;;;;4.35;1.70;;;23.60;68.80;;;;;;5053603;27;95841;-58
2022/03/19 06:09:41;;;;;;;1.83;1.50;;;23.60;69.00;;;;;;5054844;27;97378;-60
2022/03/19 06:12:11;;;;;;;1.77;1.30;;;23.60;69.20;;;;;;5053200;27;95952;-61
2022/03/19 06:14:43;;;;;;;1.75;1.40;;;23.60;69.50;;;;;;5017062;27;96832;-60
2022/03/19 06:17:13;;;;;;;3.47;1.70;;;23.60;69.60;;;;;;5023115;27;95989;-62
2022/03/19 06:19:44;;;;;;;3.73;1.80;;;23.70;69.60;;;;;;5033400;27;95578;-62
2022/03/19 06:22:15;;;;;;;4.07;1.77;;;23.70;69.70;;;;;;5033615;27;95739;-60
2022/03/19 06:24:46;;;;;;;3.20;1.60;;;23.70;69.90;;;;;;5029636;27;96514;-59
2022/03/19 06:27:17;;;;;;;3.13;1.35;;;23.70;69.90;;;;;;5035734;27;95979;-59
2022/03/19 06:29:48;;;;;;;2.88;1.50;;;23.80;70.20;;;;;;5032907;27;96402;-58
2022/03/19 06:32:20;;;;;;;3.00;2.08;;;23.80;68.60;;;;;;5034389;27;95639;-59
2022/03/19 06:34:51;;;;;;;2.63;1.70;;;23.80;70.40;;;;;;5032780;27;96456;-60
2022/03/19 06:37:23;;;;;;;3.95;1.80;;;23.80;70.40;;;;;;5046156;27;95868;-60
2022/03/19 06:39:56;;;;;;;;;;;23.80;70.50;;;;;;5042223;27;95654;-60
2022/03/19 06:42:26;;;;;;;4.88;1.95;;;23.90;69.60;;;;;;5037037;27;95746;-61
2022/03/19 06:44:56;;;;;;;2.10;1.52;;;23.80;70.70;;;;;;5035687;27;95806;-60
2022/03/19 06:47:30;;;;;;;2.63;1.60;;;23.90;70.80;;;;;;5043126;27;95781;-62
2022/03/19 06:50:02;;;;;;;3.47;1.85;;;23.90;70.90;;;;;;5061634;27;95935;-60
2022/03/19 06:52:34;;;;;;;4.68;1.80;;;23.90;71.40;;;;;;5070359;27;95646;-59
2022/03/19 06:55:04;;;;;;;2.97;1.90;;;23.90;70.80;;;;;;5066568;27;96266;-57
2022/03/19 06:57:35;;;;;;;3.60;1.57;;;23.90;70.90;;;;;;5064041;27;96309;-60
2022/03/19 07:00:06;;;;;;;;;;;23.90;70.90;;;;;;5066047;27;95774;-62
2022/03/19 07:02:50;;;;;;;3.90;1.75;;;23.90;70.90;;;;;;5051975;27;95300;-61
2022/03/19 07:05:25;;;;;;;3.42;1.55;;;23.90;71.00;;;;;;5065263;27;96358;-62
2022/03/19 07:08:00;;;;;;;2.58;2.00;;;23.90;71.10;;;;;;5044203;27;97550;-61
2022/03/19 07:10:30;;;;;;;3.13;2.35;;;23.90;71.20;;;;;;5068574;27;95844;-60
2022/03/19 07:13:07;;;;;;;4.53;1.55;;;24.00;71.20;;;;;;5061898;27;95700;-60
2022/03/19 07:15:40;;;;;;;2.92;1.45;;;24.00;71.20;;;;;;5040082;27;95927;-62
2022/03/19 07:18:12;;;;;;;1.83;1.60;;;24.00;71.30;;;;;;5039338;27;96197;-61
2022/03/19 07:20:44;;;;;;;3.55;1.90;;;24.00;71.20;;;;;;5042031;27;95711;-62
2022/03/19 07:23:14;;;;;;;3.42;2.20;;;24.00;71.10;;;;;;5048461;27;95778;-62
2022/03/19 07:25:46;;;;;;;3.33;1.98;;;24.00;71.20;;;;;;5066918;27;96060;-62
2022/03/19 07:28:19;;;;;;;1.90;1.60;;;24.00;71.40;;;;;;5057294;27;95842;-63
2022/03/19 07:30:50;;;;;;;2.10;1.60;;;24.10;71.30;;;;;;5042024;27;96103;-63
2022/03/19 07:33:20;;;;;;;2.03;1.60;;;24.00;71.30;;;;;;5066399;27;95921;-62
2022/03/19 07:35:51;;;;;;;1.85;1.58;;;24.10;71.40;;;;;;5046227;27;96009;-64
2022/03/19 07:38:22;;;;;;;2.50;1.40;;;24.10;71.60;;;;;;5050638;27;95975;-63
2022/03/19 07:43:41;;;;;;;3.08;1.35;;;24.10;71.50;;;;;;5050431;27;95750;-63
2022/03/19 07:46:12;;;;;;;;;;;24.10;71.50;;;;;;5040482;27;96467;-63
2022/03/19 07:48:44;;;;;;;1.73;1.63;;;24.10;71.50;;;;;;5050876;27;97843;-62
2022/03/19 07:51:15;;;;;;;4.25;2.00;;;24.10;71.50;;;;;;5047001;27;95966;-63
2022/03/19 07:53:45;;;;;;;4.23;1.73;;;24.10;71.60;;;;;;5046331;27;95751;-61
2022/03/19 07:56:16;;;;;;;4.57;1.65;;;24.10;71.90;;;;;;5047522;27;96045;-62
2022/03/19 07:58:52;;;;;;;;;;;24.10;71.80;;;;;;5049079;27;95411;-63
2022/03/19 08:01:23;;;;;;;2.35;1.90;;;24.10;67.20;;;;;;5045612;27;95229;-62
2022/03/19 08:03:53;;;;;;;3.53;1.60;;;24.10;71.40;;;;;;5071274;27;95585;-63
2022/03/19 08:06:24;;;;;;;2.45;1.60;;;24.20;71.50;;;;;;5069249;27;95897;-62
2022/03/19 08:08:54;;;;;;;;;;;24.20;71.50;;;;;;5060110;27;95881;-62
2022/03/19 08:11:25;;;;;;;4.25;1.67;;;24.20;71.60;;;;;;5070424;27;95478;-56
2022/03/19 08:13:57;;;;;;;1.90;1.70;;;24.20;71.90;;;;;;5060026;27;96137;-55
2022/03/19 08:16:28;;;;;;;1.98;1.58;;;24.20;72.10;;;;;;5030974;27;96114;-58
2022/03/19 08:19:00;;;;;;;3.78;2.10;;;24.20;72.10;;;;;;5068365;27;95709;-57
2022/03/19 08:21:31;;;;;;;4.25;2.10;;;24.20;72.20;;;;;;5068635;27;95531;-62
2022/03/19 08:24:01;;;;;;;;;;;24.20;72.30;;;;;;5065707;27;95809;-57
2022/03/19 08:26:32;;;;;;;3.47;1.77;;;24.20;72.40;;;;;;5060727;27;95859;-61
2022/03/19 08:29:04;;;;;;;3.38;2.45;;;24.20;72.50;;;;;;5058918;27;95885;-58
2022/03/19 08:31:34;;;;;;;4.38;2.50;;;24.20;68.30;;;;;;5053329;27;98629;-58
2022/03/19 08:34:05;;;;;;;2.38;2.15;;;24.20;72.60;;;;;;5057660;27;98440;-58
2022/03/19 08:36:36;;;;;;;4.00;2.25;;;24.20;72.70;;;;;;5057402;27;96150;-61
2022/03/19 08:41:58;;;;;;;4.85;3.17;;;24.20;72.70;;;;;;5053291;27;95791;-58
2022/03/19 08:44:28;;;;;;;5.15;3.35;;;24.20;72.70;;;;;;5063317;27;95738;-63
2022/03/19 08:46:58;;;;;;;4.57;3.13;;;24.20;72.90;;;;;;5056655;27;95862;-58
2022/03/19 08:49:28;;;;;;;6.00;2.87;;;24.10;72.90;;;;;;5055737;27;95901;-58
2022/03/19 08:51:59;;;;;;;3.10;2.80;;;24.10;72.90;;;;;;5068858;27;97963;-57
2022/03/19 08:54:31;;;;;;;7.03;3.72;;;24.10;73.00;;;;;;5055933;27;96215;-57
2022/03/19 08:57:01;;;;;;;;;;;24.10;73.10;;;;;;5050402;27;97990;-61
2022/03/19 08:59:32;;;;;;;6.72;4.15;;;24.10;73.10;;;;;;5067914;27;95317;-59
2022/03/19 09:02:02;;;;;;;11.77;6.40;;;24.10;71.80;;;;;;5042283;27;98260;-62
2022/03/19 09:04:32;;;;;;;13.80;8.27;;;24.00;72.60;;;;;;5054375;27;97505;-63
2022/03/19 09:07:06;;;;;;;14.38;9.10;;;23.50;71.40;;;;;;5052205;27;99322;-60
2022/03/19 09:09:41;;;;;;;12.18;8.32;;;22.90;73.80;;;;;;5065253;27;95852;-59
2022/03/19 09:12:33;;;;;;;14.00;10.32;;;22.50;75.40;;;;;;5056734;27;95654;-59
2022/03/19 09:15:07;;;;;;;18.92;10.00;;;22.50;74.70;;;;;;5042946;27;95412;-62
2022/03/19 09:17:39;;;;;;;15.00;8.18;;;22.30;75.60;;;;;;5028253;27;96057;-58
2022/03/19 09:20:11;;;;;;;16.85;8.35;;;22.50;76.10;;;;;;5064886;27;95741;-55
2022/03/19 09:22:42;;;;;;;11.90;8.05;;;22.90;75.00;;;;;;5054505;27;95867;-58
2022/03/19 09:25:14;;;;;;;9.38;7.10;;;23.10;73.90;;;;;;5044861;27;96227;-59
2022/03/19 09:27:45;;;;;;;10.23;7.80;;;23.30;73.20;;;;;;5060702;27;96177;-59
2022/03/19 09:30:16;;;;;;;8.02;6.53;;;23.40;72.40;;;;;;5067680;27;97845;-59
2022/03/19 09:32:47;;;;;;;8.43;6.47;;;23.50;71.40;;;;;;5046706;27;95775;-64
2022/03/19 09:35:38;;;;;;;10.50;6.20;;;23.50;70.70;;;;;;5064108;27;96087;-59
2022/03/19 09:38:08;;;;;;;7.25;6.22;;;23.50;69.70;;;;;;5064710;27;95969;-65
2022/03/19 09:40:39;;;;;;;;;;;23.50;68.60;;;;;;5063502;27;95881;-64
2022/03/19 09:43:09;;;;;;;8.30;6.03;;;23.50;67.30;;;;;;5066235;27;95805;-64
2022/03/19 09:45:41;;;;;;;6.47;5.50;;;23.50;68.60;;;;;;5054995;27;99404;-66
2022/03/19 09:48:13;;;;;;;6.05;5.45;;;23.60;68.10;;;;;;5061076;27;96732;-66
2022/03/19 09:50:44;;;;;;;6.18;5.40;;;23.60;67.40;;;;;;5056180;27;95735;-66
2022/03/19 09:53:17;;;;;;;5.75;4.82;;;23.50;67.10;;;;;;5063778;27;95893;-66
2022/03/19 09:55:48;;;;;;;6.18;5.50;;;23.50;66.30;;;;;;5059982;27;95694;-59
2022/03/19 09:58:23;;;;;;;6.35;5.43;;;23.50;66.40;;;;;;5050640;27;98079;-60
2022/03/19 10:00:54;;;;;;;5.07;4.40;;;23.50;65.80;;;;;;5051402;27;95709;-60
2022/03/19 10:03:24;;;;;;;6.80;5.00;;;23.50;65.40;;;;;;5064981;27;95780;-58
2022/03/19 10:08:59;;;;;;;5.30;4.60;;;23.50;65.60;;;;;;5065011;27;96533;-66
2022/03/19 10:11:36;;;;;;;5.80;5.15;;;23.50;65.90;;;;;;5064580;27;95825;-66
2022/03/19 10:14:07;;;;;;;5.45;4.85;;;23.50;66.40;;;;;;5053923;27;100687;-66
2022/03/19 10:16:39;;;;;;;5.65;4.32;;;23.50;66.40;;;;;;5050138;27;95342;-67
2022/03/19 10:19:11;;;;;;;6.10;4.68;;;23.50;67.00;;;;;;5053050;27;95899;-67
2022/03/19 10:21:42;;;;;;;6.97;4.60;;;23.50;67.30;;;;;;5056092;27;95936;-67
2022/03/19 10:24:30;;;;;;;5.28;4.45;;;23.50;67.50;;;;;;5052148;27;95761;-68
2022/03/19 10:27:00;;;;;;;4.72;4.32;;;23.60;68.00;;;;;;5061450;27;95770;-67
2022/03/19 10:29:35;;;;;;;5.53;4.53;;;23.50;68.70;;;;;;5059183;27;95892;-60
2022/03/19 10:32:07;;;;;;;6.32;4.30;;;23.60;67.50;;;;;;5058048;27;95304;-60
2022/03/19 10:34:42;;;;;;;5.15;4.65;;;23.60;68.50;;;;;;5065038;27;95647;-68
2022/03/19 10:37:35;;;;;;;5.05;4.50;;;23.60;68.70;;;;;;5064461;27;95792;-59
2022/03/19 10:40:08;;;;;;;5.35;4.47;;;23.60;68.70;;;;;;5062995;27;96494;-67
2022/03/19 10:42:41;;;;;;;5.75;4.85;;;23.60;69.00;;;;;;5060506;27;96014;-67
2022/03/19 10:45:21;;;;;;;4.88;4.18;;;23.60;67.50;;;;;;5050642;27;95747;-68
2022/03/19 10:47:51;;;;;;;5.80;4.65;;;23.60;69.20;;;;;;5054317;27;96084;-68
2022/03/19 10:50:25;;;;;;;4.38;3.97;;;23.60;69.40;;;;;;5060532;27;96516;-61
2022/03/19 10:52:57;;;;;;;7.32;3.97;;;23.60;69.50;;;;;;5056439;27;96033;-61
2022/03/19 10:55:27;;;;;;;5.63;3.83;;;23.60;69.60;;;;;;5061574;27;96063;-60
2022/03/19 10:57:58;;;;;;;5.63;4.40;;;23.60;69.60;;;;;;5064529;27;96566;-67
2022/03/19 11:00:29;;;;;;;6.75;4.65;;;23.60;70.20;;;;;;5054881;27;96038;-68
2022/03/19 11:03:00;;;;;;;;;;;23.60;65.80;;;;;;5062982;27;95321;-68
2022/03/19 11:05:37;;;;;;;6.70;4.80;;;23.60;69.60;;;;;;5044848;27;96013;-68
2022/03/19 11:08:09;;;;;;;11.13;6.03;;;23.50;68.90;;;;;;5056574;27;99049;-65
2022/03/19 11:10:43;;;;;;;17.30;6.95;;;23.40;68.50;;;;;;5062723;27;96296;-60
2022/03/19 11:13:20;;;;;;;12.35;6.10;;;22.40;71.70;;;;;;5054612;27;95945;-59
2022/03/19 11:15:54;;;;;;;15.02;5.88;;;21.70;74.40;;;;;;5032162;27;95414;-60
2022/03/19 11:18:27;;;;;;;11.32;5.90;;;21.40;75.70;;;;;;5059954;27;98704;-59
2022/03/19 11:20:59;;;;;;;10.65;6.40;;;21.20;75.90;;;;;;5066588;27;95927;-61
2022/03/19 11:23:38;;;;;;;13.13;6.82;;;21.10;76.30;;;;;;5062881;27;97481;-58
2022/03/19 11:26:13;;;;;;;12.57;6.32;;;20.90;77.30;;;;;;5057867;27;95751;-59
2022/03/19 11:28:45;;;;;;;13.10;6.47;;;20.80;77.80;;;;;;5062580;27;95758;-57
2022/03/19 11:31:21;;;;;;;;;;;20.60;78.80;;;;;;5053809;27;95853;-62
2022/03/19 11:33:53;;;;;;;14.07;8.68;;;20.40;79.50;;;;;;5061833;27;95811;-58
2022/03/19 11:36:25;;;;;;;17.67;8.45;;;20.20;80.60;;;;;;5046324;27;95657;-60
2022/03/19 11:39:00;;;;;;;16.08;8.90;;;20.30;80.60;;;;;;5061599;27;95590;-62
2022/03/19 11:41:31;;;;;;;15.48;8.73;;;20.30;79.80;;;;;;5062220;27;95850;-63
2022/03/19 11:44:17;;;;;;;;;;;20.70;79.90;;;;;;5062580;27;96480;-61
2022/03/19 11:47:21;;;;;;;12.93;7.18;;;21.00;78.50;;;;;;5038344;27;98169;-64
2022/03/19 11:49:57;;;;;;;13.73;7.35;;;21.30;77.00;;;;;;5016466;27;95846;-62
2022/03/19 11:52:27;;;;;;;17.25;7.68;;;21.40;76.80;;;;;;5066785;27;95794;-64
2022/03/19 11:55:08;;;;;;;17.27;7.93;;;21.40;76.30;;;;;;5063335;27;95533;-65
2022/03/19 11:57:56;;;;;;;14.02;8.25;;;21.30;76.60;;;;;;5050517;27;96906;-64
2022/03/19 12:00:30;;;;;;;14.40;7.70;;;21.00;77.40;;;;;;5060385;27;95744;-63
2022/03/19 12:03:07;;;;;;;11.38;8.13;;;20.80;76.30;;;;;;5044025;27;101005;-63
2022/03/19 12:05:46;;;;;;;11.65;8.07;;;20.70;78.50;;;;;;5049696;27;95435;-62
2022/03/19 12:08:26;;;;;;;13.35;7.68;;;20.80;78.40;;;;;;5050399;27;95731;-64
2022/03/19 12:11:01;;;;;;;13.15;7.93;;;20.60;78.40;;;;;;5051839;27;95760;-65
2022/03/19 12:13:32;;;;;;;19.48;7.85;;;20.40;79.40;;;;;;5047931;27;95980;-65
2022/03/19 12:16:08;;;;;;;15.52;7.38;;;20.30;80.10;;;;;;5039512;27;98164;-64
2022/03/19 12:18:43;;;;;;;14.95;8.73;;;20.20;80.10;;;;;;5064619;27;95313;-63
2022/03/19 12:21:15;;;;;;;12.07;7.35;;;20.20;80.30;;;;;;5068013;27;96216;-63
2022/03/19 12:23:53;;;;;;;12.57;7.03;;;20.30;80.00;;;;;;5067799;27;95988;-62
2022/03/19 12:26:26;;;;;;;15.10;9.20;;;20.40;79.60;;;;;;5051933;27;97325;-63
2022/03/19 12:29:05;;;;;;;14.60;7.35;;;20.40;79.70;;;;;;5052669;27;95264;-63
2022/03/19 12:31:38;;;;;;;16.55;8.15;;;20.30;79.80;;;;;;5065524;27;95749;-64
2022/03/19 12:34:22;;;;;;;15.35;7.63;;;20.20;80.10;;;;;;5064870;27;96047;-63
2022/03/19 12:37:03;;;;;;;15.13;7.68;;;20.10;80.60;;;;;;5071444;27;96110;-64
2022/03/19 12:39:34;;;;;;;8.23;6.18;;;20.00;80.80;;;;;;5070302;27;95780;-63
2022/03/19 12:42:05;;;;;;;14.35;7.47;;;20.00;81.10;;;;;;5072405;27;95949;-63
2022/03/19 12:44:39;;;;;;;9.88;6.65;;;19.90;80.40;;;;;;5069835;27;95828;-64
2022/03/19 12:47:10;;;;;;;12.27;6.78;;;20.70;80.90;;;;;;5059000;27;98382;-62
2022/03/19 12:49:52;;;;;;;16.67;9.25;;;21.20;78.70;;;;;;5070864;27;96204;-62
2022/03/19 12:52:23;;;;;;;13.10;7.47;;;21.50;76.00;;;;;;5064285;27;95235;-62
2022/03/19 12:54:55;;;;;;;10.95;6.25;;;21.40;76.00;;;;;;5060421;27;95816;-63
2022/03/19 12:57:28;;;;;;;15.45;8.60;;;21.80;74.20;;;;;;5068933;27;95834;-64
2022/03/19 13:00:01;;;;;;;11.65;6.85;;;20.80;75.90;;;;;;5069183;27;95683;-64
2022/03/19 13:02:31;;;;;;;13.73;7.07;;;20.00;79.40;;;;;;5052614;27;96232;-63
2022/03/19 13:05:12;;;;;;;10.93;6.53;;;19.60;81.00;;;;;;5063493;27;95875;-64
2022/03/19 13:08:20;;;;;;;12.40;7.00;;;19.30;82.60;;;;;;5050334;27;96033;-64
2022/03/19 13:10:53;;;;;;;15.48;7.22;;;19.10;83.60;;;;;;4988853;28;96100;-63
2022/03/19 13:13:34;;;;;;;14.02;7.82;;;19.00;83.70;;;;;;4983000;28;96090;-65
2022/03/19 13:16:07;;;;;;;14.48;7.35;;;19.10;83.60;;;;;;4950818;28;96846;-64
2022/03/19 13:18:42;;;;;;;11.18;7.32;;;19.00;83.50;;;;;;4987758;28;96473;-65
2022/03/19 13:21:14;;;;;;;11.20;6.80;;;18.80;83.50;;;;;;4990516;28;95155;-65
2022/03/19 13:23:46;;;;;;;12.93;8.27;;;18.70;83.90;;;;;;4990311;28;96435;-67
2022/03/19 13:26:21;;;;;;;16.38;8.77;;;18.70;84.80;;;;;;4959821;28;96078;-67
2022/03/19 13:29:05;;;;;;;13.63;8.07;;;18.90;83.90;;;;;;4989281;28;95985;-65
2022/03/19 13:31:38;;;;;;;13.15;7.80;;;18.90;83.70;;;;;;4979662;28;95787;-65
2022/03/19 13:34:08;;;;;;;8.50;7.32;;;18.80;83.50;;;;;;4987715;28;95306;-66
2022/03/19 13:36:39;;;;;;;14.70;7.75;;;18.60;84.60;;;;;;4987204;28;95874;-64